Time;durP1;ratioP1;P1;durP2;ratioP2;P2;SDS_P1;SDS_P2;PMS_P1;PMS_P2;Temp;Humidity;BMP_temperature;BMP_pressure;BME280_temperature;BME280_humidity;BME280_pressure;Samples;Min_cycle;Max_cycle;Signal;HPM_P1;HPM_P2
2023/09/05 00:02:22;;;;;;;3.47;3.17;;;;;;;;;;5100006;28;20213;-75
2023/09/05 00:04:50;;;;;;;4.88;3.53;;;;;;;;;;5099758;28;20666;-75
2023/09/05 00:07:18;;;;;;;5.18;3.55;;;;;;;;;;5099697;28;20256;-75
2023/09/05 00:09:48;;;;;;;4.20;3.35;;;;;;;;;;5099921;28;20211;-76
2023/09/05 00:12:16;;;;;;;3.88;3.15;;;;;;;;;;5099610;28;20666;-75
2023/09/05 00:14:44;;;;;;;4.13;3.53;;;;;;;;;;5099827;28;20205;-75
2023/09/05 00:17:12;;;;;;;5.25;3.90;;;;;;;;;;5099411;28;20202;-75
2023/09/05 00:19:40;;;;;;;9.35;4.00;;;;;;;;;;5099362;28;20260;-75
2023/09/05 00:22:08;;;;;;;4.00;3.65;;;;;;;;;;5099343;28;20205;-75
2023/09/05 00:24:38;;;;;;;7.22;3.67;;;;;;;;;;5099178;28;20585;-75
2023/09/05 00:27:11;;;;;;;5.20;3.70;;;;;;;;;;5099264;28;20227;-75
2023/09/05 00:29:40;;;;;;;4.10;3.70;;;;;;;;;;5099559;28;20215;-75
2023/09/05 00:32:09;;;;;;;4.55;3.92;;;;;;;;;;5099530;28;20222;-75
2023/09/05 00:34:38;;;;;;;5.68;3.75;;;;;;;;;;5099166;28;20639;-75
2023/09/05 00:37:07;;;;;;;3.50;3.20;;;;;;;;;;5099161;28;20289;-75
2023/09/05 00:39:35;;;;;;;4.70;3.22;;;;;;;;;;5098789;28;20238;-75
2023/09/05 00:42:07;;;;;;;5.32;3.38;;;;;;;;;;5099181;28;20214;-75
2023/09/05 00:44:37;;;;;;;4.18;3.78;;;;;;;;;;5098999;28;20206;-75
2023/09/05 00:47:06;;;;;;;3.60;3.30;;;;;;;;;;5098840;28;20278;-75
2023/09/05 00:49:39;;;;;;;3.65;3.35;;;;;;;;;;5099077;28;20255;-75
2023/09/05 00:52:08;;;;;;;3.72;3.00;;;;;;;;;;5098858;28;20207;-75
2023/09/05 00:54:37;;;;;;;3.30;3.00;;;;;;;;;;5098730;28;20210;-75
2023/09/05 00:57:06;;;;;;;4.00;3.10;;;;;;;;;;5098893;28;20259;-75
2023/09/05 00:59:34;;;;;;;4.30;3.23;;;;;;;;;;5098897;28;20209;-75
2023/09/05 01:02:03;;;;;;;5.93;2.85;;;;;;;;;;5098470;28;20213;-75
2023/09/05 01:04:32;;;;;;;3.45;3.10;;;;;;;;;;5098982;28;20220;-75
2023/09/05 01:07:02;;;;;;;4.60;2.92;;;;;;;;;;5098420;28;20229;-75
2023/09/05 01:09:38;;;;;;;4.65;2.90;;;;;;;;;;5098759;28;20213;-75
2023/09/05 01:12:07;;;;;;;3.53;3.03;;;;;;;;;;5098853;28;20236;-75
2023/09/05 01:14:35;;;;;;;2.97;2.73;;;;;;;;;;5098561;28;20607;-75
2023/09/05 01:17:05;;;;;;;3.45;2.38;;;;;;;;;;5098637;28;20203;-75
2023/09/05 01:19:35;;;;;;;4.47;2.92;;;;;;;;;;5098370;28;20208;-75
2023/09/05 01:22:08;;;;;;;3.28;2.80;;;;;;;;;;5098338;28;20206;-75
2023/09/05 01:24:39;;;;;;;3.15;2.90;;;;;;;;;;5098121;28;20208;-75
2023/09/05 01:27:08;;;;;;;3.90;3.15;;;;;;;;;;5098444;28;20236;-75
2023/09/05 01:29:38;;;;;;;3.97;2.88;;;;;;;;;;5098031;28;20224;-75
2023/09/05 01:32:08;;;;;;;2.87;2.67;;;;;;;;;;5098305;28;20213;-75
2023/09/05 01:34:36;;;;;;;3.25;2.67;;;;;;;;;;5098368;28;20267;-75
2023/09/05 01:37:04;;;;;;;3.33;2.90;;;;;;;;;;5098146;28;20272;-75
2023/09/05 01:39:32;;;;;;;5.47;2.85;;;;;;;;;;5098235;28;20254;-75
2023/09/05 01:42:02;;;;;;;3.13;2.80;;;;;;;;;;5098145;28;20206;-75
2023/09/05 01:44:32;;;;;;;3.53;2.55;;;;;;;;;;5098311;28;20213;-75
2023/09/05 01:47:00;;;;;;;3.70;2.50;;;;;;;;;;5098241;28;20225;-75
2023/09/05 01:49:28;;;;;;;4.90;2.83;;;;;;;;;;5097913;28;20205;-75
2023/09/05 01:51:56;;;;;;;5.00;2.60;;;;;;;;;;5097604;28;20685;-75
2023/09/05 01:54:25;;;;;;;2.75;2.25;;;;;;;;;;5098028;28;20215;-75
2023/09/05 01:56:53;;;;;;;2.38;2.17;;;;;;;;;;5097880;28;20244;-75
2023/09/05 01:59:23;;;;;;;2.50;2.30;;;;;;;;;;5097956;28;20212;-75
2023/09/05 02:01:50;;;;;;;4.05;2.70;;;;;;;;;;5098046;28;20233;-75
2023/09/05 02:04:19;;;;;;;3.22;2.58;;;;;;;;;;5097696;28;20232;-75
2023/09/05 02:06:47;;;;;;;2.95;2.60;;;;;;;;;;5097691;28;20226;-75
2023/09/05 02:09:15;;;;;;;2.63;2.38;;;;;;;;;;5097783;28;20203;-75
2023/09/05 02:11:43;;;;;;;3.38;2.08;;;;;;;;;;5097846;28;20231;-75
2023/09/05 02:14:11;;;;;;;4.97;2.58;;;;;;;;;;5099569;28;20289;-75
2023/09/05 02:16:40;;;;;;;3.33;2.55;;;;;;;;;;5102111;28;20205;-75
2023/09/05 02:19:08;;;;;;;3.10;2.80;;;;;;;;;;5102106;28;20211;-75
2023/09/05 02:21:36;;;;;;;2.55;2.35;;;;;;;;;;5101661;28;20231;-75
2023/09/05 02:24:05;;;;;;;3.63;2.58;;;;;;;;;;5101874;28;20221;-75
2023/09/05 02:26:33;;;;;;;4.10;2.10;;;;;;;;;;5101585;28;20210;-75
2023/09/05 02:29:01;;;;;;;2.90;2.58;;;;;;;;;;5101850;28;20227;-76
2023/09/05 02:31:29;;;;;;;4.78;2.28;;;;;;;;;;5101554;28;20716;-76
2023/09/05 02:33:59;;;;;;;2.83;2.15;;;;;;;;;;5101807;28;20204;-75
2023/09/05 02:36:30;;;;;;;3.22;2.45;;;;;;;;;;5101196;28;20210;-75
2023/09/05 02:38:59;;;;;;;4.18;2.40;;;;;;;;;;5101392;28;20199;-75
2023/09/05 02:41:27;;;;;;;4.22;2.42;;;;;;;;;;5101197;28;20236;-75
2023/09/05 02:43:55;;;;;;;2.53;2.33;;;;;;;;;;5101636;28;20210;-76
2023/09/05 02:46:23;;;;;;;2.70;2.22;;;;;;;;;;5101512;28;20207;-75
2023/09/05 02:48:51;;;;;;;2.33;2.13;;;;;;;;;;5101446;28;20230;-75
2023/09/05 02:51:20;;;;;;;4.78;2.50;;;;;;;;;;5087530;28;20230;-75
2023/09/05 02:53:48;;;;;;;3.00;2.03;;;;;;;;;;5101265;28;20205;-75
2023/09/05 02:56:17;;;;;;;2.58;2.10;;;;;;;;;;5100976;28;20599;-75
2023/09/05 02:58:45;;;;;;;2.90;2.10;;;;;;;;;;5101375;28;20251;-75
2023/09/05 03:01:13;;;;;;;8.85;3.00;;;;;;;;;;5101156;28;20236;-75
2023/09/05 03:03:41;;;;;;;2.30;2.10;;;;;;;;;;5100921;28;20239;-76
2023/09/05 03:06:09;;;;;;;2.83;2.38;;;;;;;;;;5100714;28;20676;-75
2023/09/05 03:08:41;;;;;;;4.38;2.50;;;;;;;;;;5100898;28;20230;-75
2023/09/05 03:11:10;;;;;;;4.10;2.13;;;;;;;;;;5101021;28;20222;-75
2023/09/05 03:13:38;;;;;;;3.17;2.42;;;;;;;;;;5100681;28;20294;-76
2023/09/05 03:16:06;;;;;;;4.63;2.63;;;;;;;;;;5100830;28;20240;-76
2023/09/05 03:18:34;;;;;;;2.65;2.40;;;;;;;;;;5100968;28;20210;-77
2023/09/05 03:21:02;;;;;;;2.28;2.13;;;;;;;;;;5100721;28;20257;-76
2023/09/05 03:23:30;;;;;;;3.00;2.40;;;;;;;;;;5100304;28;20215;-75
2023/09/05 03:25:59;;;;;;;4.57;2.05;;;;;;;;;;5100199;28;20230;-77
2023/09/05 03:28:38;;;;;;;3.42;2.28;;;;;;;;;;5100742;28;20236;-74
2023/09/05 03:31:06;;;;;;;4.30;2.25;;;;;;;;;;5100574;28;20235;-75
2023/09/05 03:33:34;;;;;;;2.47;2.22;;;;;;;;;;5100616;28;20237;-77
2023/09/05 03:36:03;;;;;;;2.40;2.20;;;;;;;;;;5099673;28;20611;-76
2023/09/05 03:38:31;;;;;;;2.87;2.17;;;;;;;;;;5098682;28;20193;-76
2023/09/05 03:41:00;;;;;;;3.30;2.42;;;;;;;;;;5100358;28;20275;-75
2023/09/05 03:43:28;;;;;;;3.22;2.45;;;;;;;;;;5100479;28;20209;-76
2023/09/05 03:45:57;;;;;;;2.93;2.13;;;;;;;;;;5100372;28;20211;-76
2023/09/05 03:48:25;;;;;;;3.40;2.30;;;;;;;;;;5100364;28;20225;-76
2023/09/05 03:50:53;;;;;;;2.37;2.17;;;;;;;;;;5100015;28;20316;-76
2023/09/05 03:53:21;;;;;;;2.55;2.20;;;;;;;;;;5099688;28;20200;-76
2023/09/05 03:55:49;;;;;;;6.30;2.57;;;;;;;;;;5099498;28;20222;-76
2023/09/05 03:58:18;;;;;;;4.10;2.30;;;;;;;;;;5099554;28;20232;-76
2023/09/05 04:00:46;;;;;;;3.17;2.10;;;;;;;;;;5099578;28;20274;-77
2023/09/05 04:03:14;;;;;;;4.03;2.75;;;;;;;;;;5100009;28;20598;-77
2023/09/05 04:05:43;;;;;;;5.15;3.00;;;;;;;;;;5099610;28;20207;-77
2023/09/05 04:08:11;;;;;;;7.97;2.73;;;;;;;;;;5099301;28;20222;-77
2023/09/05 04:10:38;;;;;;;5.50;2.55;;;;;;;;;;5099504;28;20702;-77
2023/09/05 04:13:07;;;;;;;3.47;2.80;;;;;;;;;;5099574;28;20275;-75
2023/09/05 04:15:36;;;;;;;3.38;1.98;;;;;;;;;;5099326;28;20204;-77
2023/09/05 04:18:05;;;;;;;4.60;2.73;;;;;;;;;;5099171;28;20261;-76
2023/09/05 04:20:34;;;;;;;2.95;2.30;;;;;;;;;;5098908;28;20545;-76
2023/09/05 04:23:02;;;;;;;4.30;2.37;;;;;;;;;;5099120;28;20228;-76
2023/09/05 04:25:32;;;;;;;5.20;2.72;;;;;;;;;;5099338;28;20197;-76
2023/09/05 04:28:01;;;;;;;5.70;2.93;;;;;;;;;;5099064;28;20209;-75
2023/09/05 04:30:29;;;;;;;4.83;2.97;;;;;;;;;;5099107;28;20277;-76
2023/09/05 04:32:58;;;;;;;5.63;2.80;;;;;;;;;;5098985;28;20200;-76
2023/09/05 04:35:26;;;;;;;3.00;2.70;;;;;;;;;;5096212;28;20200;-76
2023/09/05 04:37:54;;;;;;;3.00;2.70;;;;;;;;;;5098154;28;20262;-76
2023/09/05 04:40:21;;;;;;;4.90;2.70;;;;;;;;;;5099174;28;20216;-76
2023/09/05 04:42:49;;;;;;;3.73;2.50;;;;;;;;;;5097610;28;20205;-78
2023/09/05 04:45:17;;;;;;;2.97;2.67;;;;;;;;;;5099206;28;20205;-75
2023/09/05 04:47:45;;;;;;;3.77;3.27;;;;;;;;;;5099110;28;20209;-75
2023/09/05 04:50:15;;;;;;;5.57;2.87;;;;;;;;;;5098841;28;20227;-76
2023/09/05 04:52:43;;;;;;;2.60;2.40;;;;;;;;;;5098795;28;20735;-76
2023/09/05 04:55:11;;;;;;;3.23;2.87;;;;;;;;;;5099068;28;20206;-75
2023/09/05 04:57:42;;;;;;;6.63;3.20;;;;;;;;;;5098726;28;20247;-74
2023/09/05 05:00:13;;;;;;;3.57;2.80;;;;;;;;;;5098000;28;20246;-77
2023/09/05 05:02:41;;;;;;;3.70;3.07;;;;;;;;;;5093979;28;20204;-75
2023/09/05 05:05:11;;;;;;;5.43;2.90;;;;;;;;;;5094208;28;20230;-76
2023/09/05 05:07:41;;;;;;;7.30;3.40;;;;;;;;;;5098756;28;20653;-76
2023/09/05 05:10:10;;;;;;;4.60;3.13;;;;;;;;;;5098368;28;20227;-78
2023/09/05 05:12:38;;;;;;;7.23;3.30;;;;;;;;;;5098626;28;20219;-79
2023/09/05 05:15:06;;;;;;;8.53;3.40;;;;;;;;;;5098327;28;20217;-78
2023/09/05 05:17:35;;;;;;;5.03;3.03;;;;;;;;;;5098703;28;20209;-77
2023/09/05 05:20:05;;;;;;;5.97;3.20;;;;;;;;;;5099303;28;20249;-77
2023/09/05 05:22:33;;;;;;;4.83;3.50;;;;;;;;;;5099372;28;20212;-77
2023/09/05 05:25:02;;;;;;;5.60;2.90;;;;;;;;;;5098151;28;20216;-78
2023/09/05 05:27:30;;;;;;;3.60;2.73;;;;;;;;;;5098659;28;20211;-78
2023/09/05 05:29:59;;;;;;;4.73;2.90;;;;;;;;;;5098557;28;20236;-78
2023/09/05 05:32:28;;;;;;;4.57;3.10;;;;;;;;;;5096391;28;20227;-77
2023/09/05 05:34:56;;;;;;;6.50;2.70;;;;;;;;;;5099465;28;20214;-77
2023/09/05 05:37:24;;;;;;;3.83;3.17;;;;;;;;;;5098870;28;20209;-78
2023/09/05 05:39:52;;;;;;;8.10;2.97;;;;;;;;;;5097613;28;20204;-79
2023/09/05 05:42:21;;;;;;;4.37;2.67;;;;;;;;;;5098074;28;20205;-75
2023/09/05 05:44:49;;;;;;;6.37;3.00;;;;;;;;;;5097990;28;20212;-77
2023/09/05 05:47:17;;;;;;;3.50;3.07;;;;;;;;;;5097952;28;20241;-75
2023/09/05 05:49:45;;;;;;;6.63;3.20;;;;;;;;;;5097102;28;20620;-77
2023/09/05 05:52:13;;;;;;;8.53;3.27;;;;;;;;;;5101699;28;20210;-78
2023/09/05 05:54:41;;;;;;;4.27;2.93;;;;;;;;;;5096420;28;20209;-75
2023/09/05 05:57:09;;;;;;;5.07;3.07;;;;;;;;;;5097765;28;20248;-76
2023/09/05 05:59:40;;;;;;;5.73;3.13;;;;;;;;;;5097640;28;20207;-75
2023/09/05 06:02:08;;;;;;;6.77;3.63;;;;;;;;;;5098367;28;20218;-76
2023/09/05 06:04:36;;;;;;;5.97;3.03;;;;;;;;;;5097703;28;20203;-76
2023/09/05 06:07:05;;;;;;;8.27;3.57;;;;;;;;;;5097313;28;20208;-77
2023/09/05 06:09:33;;;;;;;4.10;3.07;;;;;;;;;;5104763;28;20311;-76
2023/09/05 06:12:01;;;;;;;4.77;3.23;;;;;;;;;;5101476;28;20205;-77
2023/09/05 06:14:29;;;;;;;5.20;3.22;;;;;;;;;;5097890;28;20216;-77
2023/09/05 06:16:59;;;;;;;7.63;3.27;;;;;;;;;;5097454;28;20220;-78
2023/09/05 06:19:27;;;;;;;5.73;3.50;;;;;;;;;;5097355;28;20232;-76
2023/09/05 06:21:56;;;;;;;7.40;3.00;;;;;;;;;;5097115;28;20604;-77
2023/09/05 06:24:25;;;;;;;9.43;3.33;;;;;;;;;;5097494;28;20212;-76
2023/09/05 06:26:53;;;;;;;6.17;3.30;;;;;;;;;;5102409;28;20249;-76
2023/09/05 06:29:21;;;;;;;8.13;3.90;;;;;;;;;;5097470;28;20233;-76
2023/09/05 06:31:49;;;;;;;9.67;3.77;;;;;;;;;;5097741;28;20285;-76
2023/09/05 06:34:19;;;;;;;8.17;3.33;;;;;;;;;;5097634;28;20209;-76
2023/09/05 06:36:47;;;;;;;10.93;3.87;;;;;;;;;;5097177;28;20226;-75
2023/09/05 06:39:15;;;;;;;5.70;2.90;;;;;;;;;;5097115;28;20204;-76
2023/09/05 06:41:43;;;;;;;4.30;3.17;;;;;;;;;;5097196;28;20241;-76
2023/09/05 06:44:12;;;;;;;5.33;3.10;;;;;;;;;;5109790;28;20217;-76
2023/09/05 06:46:40;;;;;;;6.13;3.00;;;;;;;;;;5097350;28;20682;-77
2023/09/05 06:49:08;;;;;;;8.40;3.20;;;;;;;;;;5097285;28;20290;-77
2023/09/05 06:51:38;;;;;;;5.77;3.33;;;;;;;;;;5097039;28;20309;-77
2023/09/05 06:54:07;;;;;;;5.27;3.10;;;;;;;;;;5097052;28;20679;-76
2023/09/05 06:56:37;;;;;;;5.13;3.20;;;;;;;;;;5087218;28;20237;-75
2023/09/05 06:59:17;;;;;;;6.60;2.77;;;;;;;;;;5094160;28;20201;-76
2023/09/05 07:01:45;;;;;;;4.80;3.07;;;;;;;;;;5104700;28;20630;-76
2023/09/05 07:04:14;;;;;;;10.57;3.13;;;;;;;;;;5101155;28;20208;-73
2023/09/05 07:06:45;;;;;;;6.38;2.85;;;;;;;;;;5100911;28;20261;-74
2023/09/05 07:09:14;;;;;;;7.32;3.92;;;;;;;;;;5100626;28;20216;-74
2023/09/05 07:11:42;;;;;;;5.03;2.83;;;;;;;;;;5100984;28;20257;-74
2023/09/05 07:14:10;;;;;;;8.73;3.53;;;;;;;;;;5100872;28;20688;-73
2023/09/05 07:16:38;;;;;;;8.00;3.67;;;;;;;;;;5100979;28;20254;-74
2023/09/05 07:19:06;;;;;;;8.98;3.03;;;;;;;;;;5113093;28;20213;-72
2023/09/05 07:21:36;;;;;;;10.75;3.45;;;;;;;;;;5100680;28;20231;-73
2023/09/05 07:24:07;;;;;;;7.05;3.20;;;;;;;;;;5101005;28;20241;-73
2023/09/05 07:26:36;;;;;;;5.97;3.22;;;;;;;;;;5100894;28;20290;-74
2023/09/05 07:29:04;;;;;;;4.15;3.28;;;;;;;;;;5100725;28;20210;-74
2023/09/05 07:31:32;;;;;;;5.30;2.90;;;;;;;;;;5100459;28;20232;-73
2023/09/05 07:34:03;;;;;;;13.63;3.50;;;;;;;;;;5103516;28;20229;-74
2023/09/05 07:36:31;;;;;;;6.82;3.30;;;;;;;;;;5101937;27;20390;-74
2023/09/05 07:39:01;;;;;;;14.95;3.15;;;;;;;;;;5100241;28;20217;-74
2023/09/05 07:41:31;;;;;;;4.47;3.30;;;;;;;;;;5100538;28;20230;-75
2023/09/05 07:44:00;;;;;;;6.53;3.25;;;;;;;;;;5100280;28;20256;-72
2023/09/05 07:46:28;;;;;;;4.50;2.78;;;;;;;;;;5100132;28;20579;-73
2023/09/05 07:48:56;;;;;;;3.13;2.83;;;;;;;;;;5099995;28;20213;-72
2023/09/05 07:51:24;;;;;;;4.55;3.10;;;;;;;;;;5105633;28;20311;-74
2023/09/05 07:54:01;;;;;;;5.25;2.97;;;;;;;;;;5105496;28;20572;-75
2023/09/05 07:56:29;;;;;;;9.35;3.05;;;;;;;;;;5091303;28;20690;-74
2023/09/05 07:58:58;;;;;;;4.38;2.83;;;;;;;;;;5095954;28;20762;-75
2023/09/05 08:01:27;;;;;;;7.20;2.65;;;;;;;;;;5100263;28;20270;-75
2023/09/05 08:03:55;;;;;;;4.38;2.75;;;;;;;;;;5100140;28;20205;-74
2023/09/05 08:06:23;;;;;;;4.63;2.65;;;;;;;;;;5099545;28;20213;-75
2023/09/05 08:08:51;;;;;;;8.50;2.70;;;;;;;;;;5105513;28;20206;-73
2023/09/05 08:11:19;;;;;;;6.93;2.70;;;;;;;;;;5099410;28;20316;-73
2023/09/05 08:13:47;;;;;;;7.57;3.13;;;;;;;;;;5099624;28;20205;-72
2023/09/05 08:16:17;;;;;;;5.07;2.90;;;;;;;;;;5099938;28;20205;-72
2023/09/05 08:18:46;;;;;;;3.92;2.33;;;;;;;;;;5099775;28;20209;-72
2023/09/05 08:21:14;;;;;;;4.93;2.75;;;;;;;;;;5099353;28;20225;-70
2023/09/05 08:23:42;;;;;;;3.92;2.72;;;;;;;;;;5098877;28;20225;-72
2023/09/05 08:26:10;;;;;;;3.35;2.78;;;;;;;;;;5111866;28;20219;-72
2023/09/05 08:28:43;;;;;;;5.57;2.50;;;;;;;;;;5099387;28;20205;-73
2023/09/05 08:31:12;;;;;;;6.97;2.60;;;;;;;;;;5099541;28;20316;-72
2023/09/05 08:33:47;;;;;;;4.28;2.75;;;;;;;;;;5099670;28;20213;-73
2023/09/05 08:36:15;;;;;;;5.25;2.63;;;;;;;;;;5098996;28;20288;-74
2023/09/05 08:38:43;;;;;;;4.03;2.50;;;;;;;;;;5099297;28;20323;-73
2023/09/05 08:41:12;;;;;;;4.55;2.70;;;;;;;;;;5098989;28;20231;-74
2023/09/05 08:43:41;;;;;;;10.43;2.90;;;;;;;;;;5099762;28;20220;-74
2023/09/05 08:46:13;;;;;;;2.83;2.22;;;;;;;;;;5099163;28;20216;-74
2023/09/05 08:48:41;;;;;;;5.32;2.67;;;;;;;;;;5097363;28;20250;-73
2023/09/05 08:51:26;;;;;;;6.28;2.88;;;;;;;;;;5085539;28;20237;-73
2023/09/05 08:53:56;;;;;;;4.20;2.67;;;;;;;;;;5098845;28;20205;-73
2023/09/05 08:56:25;;;;;;;2.95;2.63;;;;;;;;;;5090955;28;20276;-73
2023/09/05 08:58:55;;;;;;;4.28;2.65;;;;;;;;;;5095596;28;20255;-73
2023/09/05 09:01:24;;;;;;;4.22;2.92;;;;;;;;;;5109776;28;20221;-73
2023/09/05 09:03:54;;;;;;;3.78;3.17;;;;;;;;;;5098669;28;20205;-72
2023/09/05 09:06:25;;;;;;;3.05;2.70;;;;;;;;;;5097443;28;20661;-72
2023/09/05 09:08:53;;;;;;;3.33;2.72;;;;;;;;;;5098483;28;20205;-73
2023/09/05 09:11:22;;;;;;;7.38;2.60;;;;;;;;;;5095835;28;20247;-72
2023/09/05 09:13:51;;;;;;;3.65;2.72;;;;;;;;;;5098376;28;20677;-72
2023/09/05 09:16:19;;;;;;;4.22;2.65;;;;;;;;;;5103776;28;20208;-72
2023/09/05 09:18:48;;;;;;;6.35;3.28;;;;;;;;;;5099353;28;20284;-73
2023/09/05 09:21:16;;;;;;;3.55;2.60;;;;;;;;;;5098287;28;20300;-74
2023/09/05 09:23:48;;;;;;;6.22;2.90;;;;;;;;;;5098302;28;20217;-73
2023/09/05 09:26:16;;;;;;;2.70;2.40;;;;;;;;;;5098412;28;20209;-72
2023/09/05 09:28:45;;;;;;;3.05;2.70;;;;;;;;;;5096231;28;20204;-71
2023/09/05 09:31:13;;;;;;;7.07;3.65;;;;;;;;;;5098035;28;20229;-71
2023/09/05 09:33:42;;;;;;;3.75;2.50;;;;;;;;;;5098048;28;20208;-72
2023/09/05 09:36:13;;;;;;;3.95;2.67;;;;;;;;;;5093157;28;20649;-73
2023/09/05 09:38:41;;;;;;;2.60;2.40;;;;;;;;;;5097775;28;20213;-71
2023/09/05 09:41:11;;;;;;;4.53;2.58;;;;;;;;;;5097597;28;20213;-71
2023/09/05 09:43:39;;;;;;;3.17;2.75;;;;;;;;;;5098102;28;20201;-71
2023/09/05 09:46:09;;;;;;;3.22;2.92;;;;;;;;;;5097847;28;20233;-72
2023/09/05 09:48:37;;;;;;;2.78;2.50;;;;;;;;;;5097828;28;20209;-72
2023/09/05 09:51:06;;;;;;;48.65;11.82;;;;;;;;;;5097996;28;20274;-72
2023/09/05 09:53:38;;;;;;;66.93;14.07;;;;;;;;;;5097649;28;20308;-71
2023/09/05 09:56:11;;;;;;;7.15;3.15;;;;;;;;;;5101476;28;20192;-71
2023/09/05 09:58:41;;;;;;;4.47;2.70;;;;;;;;;;5097868;28;20240;-71
2023/09/05 10:01:11;;;;;;;4.72;2.67;;;;;;;;;;5090945;28;20233;-71
2023/09/05 10:03:40;;;;;;;4.30;2.90;;;;;;;;;;5098066;28;20205;-71
2023/09/05 10:06:09;;;;;;;5.60;2.70;;;;;;;;;;5097687;28;20219;-71
2023/09/05 10:08:38;;;;;;;4.78;2.85;;;;;;;;;;5105846;28;20210;-71
2023/09/05 10:11:15;;;;;;;3.10;2.80;;;;;;;;;;5097389;28;20362;-72
2023/09/05 10:13:43;;;;;;;5.22;2.45;;;;;;;;;;5097966;28;20288;-74
2023/09/05 10:16:12;;;;;;;4.13;3.10;;;;;;;;;;5097742;28;20209;-74
2023/09/05 10:18:45;;;;;;;2.97;2.67;;;;;;;;;;5097592;28;20250;-75
2023/09/05 10:21:14;;;;;;;3.83;3.03;;;;;;;;;;5097243;28;20624;-70
2023/09/05 10:23:42;;;;;;;3.75;2.47;;;;;;;;;;5097592;28;20208;-69
2023/09/05 10:26:12;;;;;;;5.60;3.10;;;;;;;;;;5097432;28;20258;-70
2023/09/05 10:28:42;;;;;;;3.13;2.67;;;;;;;;;;5097396;28;20205;-69
2023/09/05 10:31:12;;;;;;;4.40;3.00;;;;;;;;;;5084145;28;20221;-77
2023/09/05 10:33:45;;;;;;;5.20;2.78;;;;;;;;;;5097589;28;20205;-73
2023/09/05 10:36:33;;;;;;;2.85;2.60;;;;;;;;;;5087981;28;20216;-79
2023/09/05 10:39:01;;;;;;;2.92;2.70;;;;;;;;;;5101283;28;20231;-76
2023/09/05 10:41:38;;;;;;;4.85;2.97;;;;;;;;;;5104915;28;20277;-75
2023/09/05 10:44:08;;;;;;;3.15;2.88;;;;;;;;;;5097974;28;20665;-76
2023/09/05 10:46:39;;;;;;;5.10;3.10;;;;;;;;;;5090258;28;20197;-76
2023/09/05 10:49:12;;;;;;;2.97;2.38;;;;;;;;;;5101158;28;20209;-76
2023/09/05 10:51:55;;;;;;;3.47;2.58;;;;;;;;;;5100954;28;20233;-76
2023/09/05 10:54:27;;;;;;;3.15;2.85;;;;;;;;;;5100971;28;20566;-76
2023/09/05 10:56:55;;;;;;;3.38;2.90;;;;;;;;;;5100920;28;20225;-75
2023/09/05 10:59:27;;;;;;;3.10;2.53;;;;;;;;;;5099004;28;20721;-74
2023/09/05 11:02:00;;;;;;;4.78;3.15;;;;;;;;;;5098775;28;20213;-75
2023/09/05 11:04:31;;;;;;;3.17;2.80;;;;;;;;;;5100572;28;20284;-75
2023/09/05 11:07:06;;;;;;;4.63;3.22;;;;;;;;;;5100979;28;20657;-74
2023/09/05 11:09:49;;;;;;;2.60;2.40;;;;;;;;;;5101101;28;20243;-74
2023/09/05 11:12:18;;;;;;;2.85;2.65;;;;;;;;;;5100861;28;20240;-75
2023/09/05 11:14:48;;;;;;;3.70;2.83;;;;;;;;;;5100845;28;20566;-74
2023/09/05 11:17:17;;;;;;;3.90;2.90;;;;;;;;;;5101233;28;20205;-75
2023/09/05 11:19:47;;;;;;;3.90;3.20;;;;;;;;;;5100523;28;20209;-74
2023/09/05 11:22:21;;;;;;;5.32;2.60;;;;;;;;;;5096506;28;20603;-74
2023/09/05 11:24:50;;;;;;;2.92;2.63;;;;;;;;;;5095242;28;20232;-74
2023/09/05 11:27:18;;;;;;;4.95;2.90;;;;;;;;;;5100947;28;20205;-75
2023/09/05 11:29:51;;;;;;;3.72;2.70;;;;;;;;;;5100582;28;20216;-76
2023/09/05 11:32:20;;;;;;;3.35;2.78;;;;;;;;;;5100556;28;20563;-76
2023/09/05 11:34:49;;;;;;;3.58;2.78;;;;;;;;;;5100317;28;20235;-74
2023/09/05 11:37:18;;;;;;;5.05;2.83;;;;;;;;;;5100708;28;20215;-75
2023/09/05 11:39:46;;;;;;;6.40;2.63;;;;;;;;;;5100204;28;20665;-74
2023/09/05 11:42:18;;;;;;;5.50;2.88;;;;;;;;;;5100563;28;20201;-74
2023/09/05 11:44:48;;;;;;;3.47;3.17;;;;;;;;;;5100508;28;20212;-75
2023/09/05 11:47:16;;;;;;;4.25;2.90;;;;;;;;;;5100058;28;20217;-74
2023/09/05 11:49:44;;;;;;;3.88;2.75;;;;;;;;;;5099967;28;20217;-74
2023/09/05 11:52:13;;;;;;;4.60;2.65;;;;;;;;;;5100428;28;20228;-74
2023/09/05 11:54:42;;;;;;;4.43;2.97;;;;;;;;;;5100033;28;20209;-75
2023/09/05 11:57:11;;;;;;;3.30;2.70;;;;;;;;;;5099910;28;20229;-75
2023/09/05 11:59:39;;;;;;;4.68;2.90;;;;;;;;;;5097769;28;20258;-74
2023/09/05 12:02:10;;;;;;;4.60;2.92;;;;;;;;;;5092128;28;20201;-75
2023/09/05 12:04:38;;;;;;;4.05;2.95;;;;;;;;;;5099825;28;20209;-75
2023/09/05 12:07:09;;;;;;;3.22;2.70;;;;;;;;;;5100113;28;20244;-74
2023/09/05 12:09:39;;;;;;;3.33;2.80;;;;;;;;;;5099850;28;20209;-74
2023/09/05 12:12:08;;;;;;;2.45;2.33;;;;;;;;;;5099765;28;20634;-74
2023/09/05 12:14:49;;;;;;;10.45;3.20;;;;;;;;;;5099925;28;20231;-75
2023/09/05 12:17:19;;;;;;;3.38;2.55;;;;;;;;;;5099649;28;20211;-74
2023/09/05 12:19:47;;;;;;;4.07;2.80;;;;;;;;;;5099840;28;20213;-74
2023/09/05 12:22:22;;;;;;;6.75;3.00;;;;;;;;;;5099765;28;20213;-76
2023/09/05 12:25:05;;;;;;;8.80;2.92;;;;;;;;;;5099417;28;20255;-75
2023/09/05 12:27:36;;;;;;;5.05;3.00;;;;;;;;;;5099605;28;20209;-75
2023/09/05 12:30:05;;;;;;;6.63;2.70;;;;;;;;;;5099811;28;20274;-74
2023/09/05 12:32:34;;;;;;;4.57;3.00;;;;;;;;;;5099383;28;20714;-75
2023/09/05 12:35:03;;;;;;;4.20;3.17;;;;;;;;;;5099231;28;20251;-75
2023/09/05 12:37:31;;;;;;;4.72;2.80;;;;;;;;;;5086617;28;20209;-74
2023/09/05 12:40:00;;;;;;;5.30;2.60;;;;;;;;;;5099391;28;20217;-74
2023/09/05 12:42:28;;;;;;;4.78;2.92;;;;;;;;;;5098818;28;20205;-74
2023/09/05 12:44:56;;;;;;;2.78;2.58;;;;;;;;;;5097353;28;20198;-74
2023/09/05 12:47:24;;;;;;;3.53;2.80;;;;;;;;;;5099030;28;20545;-75
2023/09/05 12:49:57;;;;;;;2.33;2.13;;;;;;;;;;5098629;28;20286;-74
2023/09/05 12:52:38;;;;;;;5.40;2.65;;;;;;;;;;5099110;28;20243;-74
2023/09/05 12:55:06;;;;;;;3.90;2.85;;;;;;;;;;5099354;28;20202;-74
2023/09/05 12:57:34;;;;;;;7.20;2.75;;;;;;;;;;5098385;28;20241;-74
2023/09/05 13:00:03;;;;;;;7.13;2.83;;;;;;;;;;5097817;28;20213;-74
2023/09/05 13:02:31;;;;;;;4.65;3.05;;;;;;;;;;5100107;28;20569;-74
2023/09/05 13:05:00;;;;;;;4.18;3.08;;;;;;;;;;5098141;28;20621;-74
2023/09/05 13:07:29;;;;;;;4.50;3.83;;;;;;;;;;5098546;28;20254;-74
2023/09/05 13:09:57;;;;;;;9.80;2.72;;;;;;;;;;5095809;28;20217;-73
2023/09/05 13:12:25;;;;;;;4.05;2.75;;;;;;;;;;5095158;28;20202;-76
2023/09/05 13:14:54;;;;;;;3.17;2.78;;;;;;;;;;5097933;28;20212;-76
2023/09/05 13:17:22;;;;;;;4.68;2.85;;;;;;;;;;5096387;28;20201;-75
2023/09/05 13:19:49;;;;;;;4.18;2.30;;;;;;;;;;5097617;28;20205;-73
2023/09/05 13:22:19;;;;;;;4.07;2.75;;;;;;;;;;5094797;28;20649;-74
2023/09/05 13:24:47;;;;;;;3.28;2.85;;;;;;;;;;5098360;28;20201;-76
2023/09/05 13:27:15;;;;;;;6.82;2.50;;;;;;;;;;5098598;28;20201;-75
2023/09/05 13:29:43;;;;;;;4.88;2.70;;;;;;;;;;5098026;28;20296;-75
2023/09/05 13:32:12;;;;;;;7.78;3.20;;;;;;;;;;5095947;28;20201;-76
2023/09/05 13:34:43;;;;;;;6.57;2.65;;;;;;;;;;5097841;28;20691;-75
2023/09/05 13:37:11;;;;;;;6.68;2.83;;;;;;;;;;5094042;28;20197;-76
2023/09/05 13:39:41;;;;;;;3.15;2.67;;;;;;;;;;5097890;28;20228;-72
2023/09/05 13:42:09;;;;;;;5.05;2.92;;;;;;;;;;5084320;28;20680;-75
2023/09/05 13:44:37;;;;;;;3.60;2.97;;;;;;;;;;5097853;28;20716;-70
2023/09/05 13:47:07;;;;;;;5.55;2.90;;;;;;;;;;5098317;28;20205;-69
2023/09/05 13:49:36;;;;;;;4.82;2.88;;;;;;;;;;5097976;28;20563;-68
2023/09/05 13:52:04;;;;;;;3.58;2.58;;;;;;;;;;5097935;28;20295;-69
2023/09/05 13:54:32;;;;;;;5.60;2.70;;;;;;;;;;5097827;28;20692;-68
2023/09/05 13:57:03;;;;;;;5.13;2.70;;;;;;;;;;5098142;28;20236;-69
2023/09/05 13:59:31;;;;;;;6.55;3.00;;;;;;;;;;5098402;28;20288;-70
2023/09/05 14:01:59;;;;;;;4.47;2.80;;;;;;;;;;5089663;28;20661;-68
2023/09/05 14:04:28;;;;;;;5.97;2.60;;;;;;;;;;5097652;28;20232;-69
2023/09/05 14:06:56;;;;;;;3.63;2.58;;;;;;;;;;5097736;28;20211;-71
2023/09/05 14:09:24;;;;;;;6.45;3.00;;;;;;;;;;5097371;28;20576;-71
2023/09/05 14:11:52;;;;;;;3.63;2.65;;;;;;;;;;5097548;28;20229;-72
2023/09/05 14:14:21;;;;;;;4.47;2.85;;;;;;;;;;5097613;28;20225;-71
2023/09/05 14:16:53;;;;;;;4.43;2.88;;;;;;;;;;5097885;28;20254;-72
2023/09/05 14:19:22;;;;;;;3.92;2.70;;;;;;;;;;5097424;28;20205;-73
2023/09/05 14:21:50;;;;;;;5.13;2.75;;;;;;;;;;5097482;28;20225;-72
2023/09/05 14:24:18;;;;;;;5.47;3.25;;;;;;;;;;5094528;28;20197;-72
2023/09/05 14:26:46;;;;;;;5.40;2.78;;;;;;;;;;5097610;28;20202;-69
2023/09/05 14:29:14;;;;;;;2.90;2.60;;;;;;;;;;5097419;28;20565;-71
2023/09/05 14:31:44;;;;;;;3.72;2.40;;;;;;;;;;5097455;28;20227;-70
2023/09/05 14:34:12;;;;;;;8.15;2.78;;;;;;;;;;5097523;28;20232;-70
2023/09/05 14:36:40;;;;;;;3.90;2.80;;;;;;;;;;5097336;28;20240;-69
2023/09/05 14:39:09;;;;;;;6.30;2.67;;;;;;;;;;5097408;28;20577;-69
2023/09/05 14:41:37;;;;;;;4.78;2.33;;;;;;;;;;5097476;28;20244;-69
2023/09/05 14:44:05;;;;;;;3.97;2.80;;;;;;;;;;5097330;28;20213;-70
2023/09/05 14:46:34;;;;;;;4.05;3.33;;;;;;;;;;5093680;28;20216;-69
2023/09/05 14:49:03;;;;;;;5.32;2.80;;;;;;;;;;5097617;28;20213;-70
2023/09/05 14:51:32;;;;;;;8.35;3.20;;;;;;;;;;5097264;28;20300;-70
2023/09/05 14:54:00;;;;;;;4.75;2.75;;;;;;;;;;5097174;28;20692;-70
2023/09/05 14:56:28;;;;;;;4.00;2.40;;;;;;;;;;5097537;28;20220;-69